sensor_id;sensor_type;location;lat;lon;timestamp;P1;durP1;ratioP1;P2;durP2;ratioP2
23317;SDS011;11831;55.918;37.746;2023-07-30T00:01:41;8.07;;;5.55;;
23317;SDS011;11831;55.918;37.746;2023-07-30T00:04:08;6.12;;;4.95;;
23317;SDS011;11831;55.918;37.746;2023-07-30T00:06:35;6.18;;;4.80;;
23317;SDS011;11831;55.918;37.746;2023-07-30T00:09:01;4.82;;;4.30;;
23317;SDS011;11831;55.918;37.746;2023-07-30T00:11:28;7.62;;;4.43;;
23317;SDS011;11831;55.918;37.746;2023-07-30T00:13:55;5.03;;;3.75;;
23317;SDS011;11831;55.918;37.746;2023-07-30T00:16:21;5.05;;;3.78;;
23317;SDS011;11831;55.918;37.746;2023-07-30T00:18:47;5.85;;;3.60;;
23317;SDS011;11831;55.918;37.746;2023-07-30T00:21:14;5.82;;;3.47;;
23317;SDS011;11831;55.918;37.746;2023-07-30T00:23:40;5.72;;;3.55;;
23317;SDS011;11831;55.918;37.746;2023-07-30T00:26:07;4.45;;;3.30;;
23317;SDS011;11831;55.918;37.746;2023-07-30T00:28:33;5.30;;;3.70;;
23317;SDS011;11831;55.918;37.746;2023-07-30T00:30:59;5.15;;;3.33;;
23317;SDS011;11831;55.918;37.746;2023-07-30T00:33:26;6.30;;;3.33;;
23317;SDS011;11831;55.918;37.746;2023-07-30T00:35:52;5.25;;;3.58;;
23317;SDS011;11831;55.918;37.746;2023-07-30T00:38:19;3.83;;;3.30;;
23317;SDS011;11831;55.918;37.746;2023-07-30T00:40:46;4.05;;;3.50;;
23317;SDS011;11831;55.918;37.746;2023-07-30T00:43:12;3.33;;;3.03;;
23317;SDS011;11831;55.918;37.746;2023-07-30T00:45:40;4.75;;;3.60;;
23317;SDS011;11831;55.918;37.746;2023-07-30T00:48:07;4.82;;;3.17;;
23317;SDS011;11831;55.918;37.746;2023-07-30T00:50:33;4.47;;;3.22;;
23317;SDS011;11831;55.918;37.746;2023-07-30T00:53:00;5.72;;;3.70;;
23317;SDS011;11831;55.918;37.746;2023-07-30T00:55:26;4.90;;;3.67;;
23317;SDS011;11831;55.918;37.746;2023-07-30T00:57:53;3.37;;;2.70;;
23317;SDS011;11831;55.918;37.746;2023-07-30T01:00:19;4.75;;;4.00;;
23317;SDS011;11831;55.918;37.746;2023-07-30T01:02:48;4.95;;;4.45;;
23317;SDS011;11831;55.918;37.746;2023-07-30T01:05:14;6.37;;;4.50;;
23317;SDS011;11831;55.918;37.746;2023-07-30T01:07:40;8.73;;;4.93;;
23317;SDS011;11831;55.918;37.746;2023-07-30T01:10:07;6.30;;;4.50;;
23317;SDS011;11831;55.918;37.746;2023-07-30T01:12:34;7.65;;;5.37;;
23317;SDS011;11831;55.918;37.746;2023-07-30T01:15:01;5.80;;;5.25;;
23317;SDS011;11831;55.918;37.746;2023-07-30T01:17:30;6.30;;;5.68;;
23317;SDS011;11831;55.918;37.746;2023-07-30T01:19:57;7.93;;;5.75;;
23317;SDS011;11831;55.918;37.746;2023-07-30T01:22:23;8.32;;;6.10;;
23317;SDS011;11831;55.918;37.746;2023-07-30T01:24:50;7.85;;;5.32;;
23317;SDS011;11831;55.918;37.746;2023-07-30T01:27:24;7.70;;;6.30;;
23317;SDS011;11831;55.918;37.746;2023-07-30T01:30:06;8.57;;;6.00;;
23317;SDS011;11831;55.918;37.746;2023-07-30T01:32:39;7.35;;;6.20;;
23317;SDS011;11831;55.918;37.746;2023-07-30T01:35:07;7.60;;;6.70;;
23317;SDS011;11831;55.918;37.746;2023-07-30T01:37:35;7.87;;;5.40;;
23317;SDS011;11831;55.918;37.746;2023-07-30T01:40:03;9.02;;;7.32;;
23317;SDS011;11831;55.918;37.746;2023-07-30T01:42:31;7.93;;;6.43;;
23317;SDS011;11831;55.918;37.746;2023-07-30T01:44:58;8.35;;;5.90;;
23317;SDS011;11831;55.918;37.746;2023-07-30T01:47:24;9.73;;;6.30;;
23317;SDS011;11831;55.918;37.746;2023-07-30T01:49:50;7.57;;;6.45;;
23317;SDS011;11831;55.918;37.746;2023-07-30T01:52:17;10.07;;;6.05;;
23317;SDS011;11831;55.918;37.746;2023-07-30T01:54:43;6.47;;;5.60;;
23317;SDS011;11831;55.918;37.746;2023-07-30T01:57:10;7.70;;;6.03;;
23317;SDS011;11831;55.918;37.746;2023-07-30T01:59:38;7.60;;;5.62;;
23317;SDS011;11831;55.918;37.746;2023-07-30T02:02:05;6.53;;;5.93;;
23317;SDS011;11831;55.918;37.746;2023-07-30T02:04:33;8.32;;;6.22;;
23317;SDS011;11831;55.918;37.746;2023-07-30T02:06:59;6.90;;;5.70;;
23317;SDS011;11831;55.918;37.746;2023-07-30T02:09:26;12.55;;;6.55;;
23317;SDS011;11831;55.918;37.746;2023-07-30T02:11:52;8.55;;;6.75;;
23317;SDS011;11831;55.918;37.746;2023-07-30T02:14:18;7.35;;;6.25;;
23317;SDS011;11831;55.918;37.746;2023-07-30T02:16:45;7.50;;;6.15;;
23317;SDS011;11831;55.918;37.746;2023-07-30T02:19:11;8.18;;;6.70;;
23317;SDS011;11831;55.918;37.746;2023-07-30T02:21:38;7.47;;;6.50;;
23317;SDS011;11831;55.918;37.746;2023-07-30T02:24:08;9.30;;;5.65;;
23317;SDS011;11831;55.918;37.746;2023-07-30T02:26:37;7.70;;;5.68;;
23317;SDS011;11831;55.918;37.746;2023-07-30T02:29:04;6.50;;;5.80;;
23317;SDS011;11831;55.918;37.746;2023-07-30T02:31:31;8.35;;;5.78;;
23317;SDS011;11831;55.918;37.746;2023-07-30T02:33:58;8.82;;;6.03;;
23317;SDS011;11831;55.918;37.746;2023-07-30T02:36:24;8.00;;;5.80;;
23317;SDS011;11831;55.918;37.746;2023-07-30T02:38:51;7.53;;;5.78;;
23317;SDS011;11831;55.918;37.746;2023-07-30T02:41:17;8.73;;;5.53;;
23317;SDS011;11831;55.918;37.746;2023-07-30T02:43:43;7.57;;;5.60;;
23317;SDS011;11831;55.918;37.746;2023-07-30T02:46:10;6.53;;;5.87;;
23317;SDS011;11831;55.918;37.746;2023-07-30T02:48:37;6.05;;;5.45;;
23317;SDS011;11831;55.918;37.746;2023-07-30T02:51:03;6.90;;;5.87;;
23317;SDS011;11831;55.918;37.746;2023-07-30T02:53:29;7.72;;;5.22;;
23317;SDS011;11831;55.918;37.746;2023-07-30T02:55:56;8.00;;;5.50;;
23317;SDS011;11831;55.918;37.746;2023-07-30T02:58:22;6.57;;;5.75;;
23317;SDS011;11831;55.918;37.746;2023-07-30T03:00:48;12.35;;;5.85;;
23317;SDS011;11831;55.918;37.746;2023-07-30T03:03:16;6.20;;;5.60;;
23317;SDS011;11831;55.918;37.746;2023-07-30T03:05:42;7.00;;;5.20;;
23317;SDS011;11831;55.918;37.746;2023-07-30T03:08:09;7.45;;;5.25;;
23317;SDS011;11831;55.918;37.746;2023-07-30T03:10:36;7.40;;;5.20;;
23317;SDS011;11831;55.918;37.746;2023-07-30T03:13:02;5.93;;;5.18;;
23317;SDS011;11831;55.918;37.746;2023-07-30T03:15:29;5.57;;;4.85;;
23317;SDS011;11831;55.918;37.746;2023-07-30T03:17:55;7.57;;;5.15;;
23317;SDS011;11831;55.918;37.746;2023-07-30T03:20:21;6.57;;;5.22;;
23317;SDS011;11831;55.918;37.746;2023-07-30T03:22:48;7.40;;;5.30;;
23317;SDS011;11831;55.918;37.746;2023-07-30T03:25:14;6.65;;;5.07;;
23317;SDS011;11831;55.918;37.746;2023-07-30T03:27:41;7.53;;;5.15;;
23317;SDS011;11831;55.918;37.746;2023-07-30T03:30:08;6.43;;;4.95;;
23317;SDS011;11831;55.918;37.746;2023-07-30T03:32:35;6.68;;;5.18;;
23317;SDS011;11831;55.918;37.746;2023-07-30T03:35:01;7.37;;;5.10;;
23317;SDS011;11831;55.918;37.746;2023-07-30T03:37:28;5.87;;;4.62;;
23317;SDS011;11831;55.918;37.746;2023-07-30T03:39:55;7.35;;;5.15;;
23317;SDS011;11831;55.918;37.746;2023-07-30T03:42:21;5.93;;;5.03;;
23317;SDS011;11831;55.918;37.746;2023-07-30T03:44:47;6.18;;;4.53;;
23317;SDS011;11831;55.918;37.746;2023-07-30T03:47:14;5.55;;;4.75;;
23317;SDS011;11831;55.918;37.746;2023-07-30T03:49:41;6.30;;;4.70;;
23317;SDS011;11831;55.918;37.746;2023-07-30T03:52:08;7.57;;;4.70;;
23317;SDS011;11831;55.918;37.746;2023-07-30T03:54:34;4.78;;;4.10;;
23317;SDS011;11831;55.918;37.746;2023-07-30T03:57:01;8.60;;;4.40;;
23317;SDS011;11831;55.918;37.746;2023-07-30T03:59:27;4.50;;;4.10;;
23317;SDS011;11831;55.918;37.746;2023-07-30T04:01:54;5.68;;;4.05;;
23317;SDS011;11831;55.918;37.746;2023-07-30T04:04:21;4.15;;;3.80;;
23317;SDS011;11831;55.918;37.746;2023-07-30T04:06:47;6.03;;;4.20;;
23317;SDS011;11831;55.918;37.746;2023-07-30T04:09:13;5.20;;;3.75;;
23317;SDS011;11831;55.918;37.746;2023-07-30T04:11:40;5.00;;;4.30;;
23317;SDS011;11831;55.918;37.746;2023-07-30T04:14:06;6.68;;;4.53;;
23317;SDS011;11831;55.918;37.746;2023-07-30T04:16:35;5.70;;;3.60;;
23317;SDS011;11831;55.918;37.746;2023-07-30T04:19:01;6.30;;;3.72;;
23317;SDS011;11831;55.918;37.746;2023-07-30T04:21:28;4.57;;;3.70;;
23317;SDS011;11831;55.918;37.746;2023-07-30T04:23:54;6.07;;;4.00;;
23317;SDS011;11831;55.918;37.746;2023-07-30T04:26:20;5.32;;;3.95;;
23317;SDS011;11831;55.918;37.746;2023-07-30T04:28:47;6.93;;;4.28;;
23317;SDS011;11831;55.918;37.746;2023-07-30T04:31:14;4.57;;;3.60;;
23317;SDS011;11831;55.918;37.746;2023-07-30T04:33:40;6.45;;;3.80;;
23317;SDS011;11831;55.918;37.746;2023-07-30T04:36:07;6.12;;;3.90;;
23317;SDS011;11831;55.918;37.746;2023-07-30T04:38:34;6.70;;;4.20;;
23317;SDS011;11831;55.918;37.746;2023-07-30T04:41:00;4.32;;;3.92;;
23317;SDS011;11831;55.918;37.746;2023-07-30T04:43:27;8.43;;;3.85;;
23317;SDS011;11831;55.918;37.746;2023-07-30T04:45:54;4.20;;;3.40;;
23317;SDS011;11831;55.918;37.746;2023-07-30T04:48:21;5.68;;;3.50;;
23317;SDS011;11831;55.918;37.746;2023-07-30T04:50:48;4.03;;;3.10;;
23317;SDS011;11831;55.918;37.746;2023-07-30T04:53:14;4.35;;;3.20;;
23317;SDS011;11831;55.918;37.746;2023-07-30T04:55:42;3.30;;;3.00;;
23317;SDS011;11831;55.918;37.746;2023-07-30T04:58:09;4.90;;;3.40;;
23317;SDS011;11831;55.918;37.746;2023-07-30T05:00:36;4.90;;;3.50;;
23317;SDS011;11831;55.918;37.746;2023-07-30T05:03:02;3.58;;;3.28;;
23317;SDS011;11831;55.918;37.746;2023-07-30T05:05:29;4.25;;;3.37;;
23317;SDS011;11831;55.918;37.746;2023-07-30T05:07:55;8.77;;;7.25;;
23317;SDS011;11831;55.918;37.746;2023-07-30T05:10:22;6.93;;;3.45;;
23317;SDS011;11831;55.918;37.746;2023-07-30T05:12:48;6.45;;;3.45;;
23317;SDS011;11831;55.918;37.746;2023-07-30T05:15:15;4.55;;;3.00;;
23317;SDS011;11831;55.918;37.746;2023-07-30T05:17:41;3.55;;;2.85;;
23317;SDS011;11831;55.918;37.746;2023-07-30T05:20:08;4.03;;;2.85;;
23317;SDS011;11831;55.918;37.746;2023-07-30T05:22:34;7.60;;;3.22;;
23317;SDS011;11831;55.918;37.746;2023-07-30T05:25:01;4.60;;;3.10;;
23317;SDS011;11831;55.918;37.746;2023-07-30T05:27:28;3.20;;;2.70;;
23317;SDS011;11831;55.918;37.746;2023-07-30T05:29:57;5.18;;;3.00;;
23317;SDS011;11831;55.918;37.746;2023-07-30T05:32:23;4.45;;;2.80;;
23317;SDS011;11831;55.918;37.746;2023-07-30T05:34:51;2.90;;;2.60;;
23317;SDS011;11831;55.918;37.746;2023-07-30T05:37:17;3.87;;;2.70;;
23317;SDS011;11831;55.918;37.746;2023-07-30T05:39:44;6.05;;;2.85;;
23317;SDS011;11831;55.918;37.746;2023-07-30T05:42:10;4.32;;;3.25;;
23317;SDS011;11831;55.918;37.746;2023-07-30T05:44:36;4.72;;;3.00;;
23317;SDS011;11831;55.918;37.746;2023-07-30T05:47:03;3.40;;;2.80;;
23317;SDS011;11831;55.918;37.746;2023-07-30T05:49:29;5.00;;;2.95;;
23317;SDS011;11831;55.918;37.746;2023-07-30T05:51:56;4.15;;;2.67;;
23317;SDS011;11831;55.918;37.746;2023-07-30T05:54:22;3.97;;;3.03;;
23317;SDS011;11831;55.918;37.746;2023-07-30T05:56:49;5.55;;;2.85;;
23317;SDS011;11831;55.918;37.746;2023-07-30T05:59:15;4.28;;;2.78;;
23317;SDS011;11831;55.918;37.746;2023-07-30T06:01:42;4.68;;;2.80;;
23317;SDS011;11831;55.918;37.746;2023-07-30T06:04:08;3.72;;;3.03;;
23317;SDS011;11831;55.918;37.746;2023-07-30T06:06:34;3.30;;;3.00;;
23317;SDS011;11831;55.918;37.746;2023-07-30T06:09:01;3.58;;;2.50;;
23317;SDS011;11831;55.918;37.746;2023-07-30T06:11:27;3.47;;;2.78;;
23317;SDS011;11831;55.918;37.746;2023-07-30T06:13:54;4.93;;;2.92;;
23317;SDS011;11831;55.918;37.746;2023-07-30T06:16:20;5.32;;;3.05;;
23317;SDS011;11831;55.918;37.746;2023-07-30T06:18:47;4.22;;;2.60;;
23317;SDS011;11831;55.918;37.746;2023-07-30T06:21:13;3.95;;;2.78;;
23317;SDS011;11831;55.918;37.746;2023-07-30T06:23:40;4.37;;;2.70;;
23317;SDS011;11831;55.918;37.746;2023-07-30T06:26:06;6.35;;;2.53;;
23317;SDS011;11831;55.918;37.746;2023-07-30T06:28:32;6.35;;;2.83;;
23317;SDS011;11831;55.918;37.746;2023-07-30T06:31:00;5.18;;;3.92;;
23317;SDS011;11831;55.918;37.746;2023-07-30T06:33:27;9.48;;;2.95;;
23317;SDS011;11831;55.918;37.746;2023-07-30T06:35:54;4.25;;;2.87;;
23317;SDS011;11831;55.918;37.746;2023-07-30T06:38:20;2.97;;;2.53;;
23317;SDS011;11831;55.918;37.746;2023-07-30T06:40:47;3.08;;;2.20;;
23317;SDS011;11831;55.918;37.746;2023-07-30T06:43:13;5.35;;;2.62;;
23317;SDS011;11831;55.918;37.746;2023-07-30T06:45:39;2.80;;;2.50;;
23317;SDS011;11831;55.918;37.746;2023-07-30T06:48:06;5.65;;;2.62;;
23317;SDS011;11831;55.918;37.746;2023-07-30T06:50:32;3.47;;;2.92;;
23317;SDS011;11831;55.918;37.746;2023-07-30T06:52:58;6.28;;;2.70;;
23317;SDS011;11831;55.918;37.746;2023-07-30T06:55:24;3.87;;;2.25;;
23317;SDS011;11831;55.918;37.746;2023-07-30T06:57:51;3.17;;;1.90;;
23317;SDS011;11831;55.918;37.746;2023-07-30T07:00:17;3.60;;;2.25;;
23317;SDS011;11831;55.918;37.746;2023-07-30T07:02:47;2.80;;;2.22;;
23317;SDS011;11831;55.918;37.746;2023-07-30T07:05:14;4.78;;;2.33;;
23317;SDS011;11831;55.918;37.746;2023-07-30T07:07:41;3.33;;;2.75;;
23317;SDS011;11831;55.918;37.746;2023-07-30T07:10:08;3.05;;;2.50;;
23317;SDS011;11831;55.918;37.746;2023-07-30T07:12:36;3.90;;;2.55;;
23317;SDS011;11831;55.918;37.746;2023-07-30T07:15:06;5.07;;;2.35;;
23317;SDS011;11831;55.918;37.746;2023-07-30T07:17:33;5.57;;;1.95;;
23317;SDS011;11831;55.918;37.746;2023-07-30T07:20:00;3.42;;;2.62;;
23317;SDS011;11831;55.918;37.746;2023-07-30T07:22:26;3.40;;;2.40;;
23317;SDS011;11831;55.918;37.746;2023-07-30T07:24:53;3.53;;;2.40;;
23317;SDS011;11831;55.918;37.746;2023-07-30T07:27:19;5.65;;;2.37;;
23317;SDS011;11831;55.918;37.746;2023-07-30T07:29:46;4.05;;;2.60;;
23317;SDS011;11831;55.918;37.746;2023-07-30T07:32:12;3.65;;;2.60;;
23317;SDS011;11831;55.918;37.746;2023-07-30T07:34:39;3.35;;;2.08;;
23317;SDS011;11831;55.918;37.746;2023-07-30T07:37:05;2.65;;;2.15;;
23317;SDS011;11831;55.918;37.746;2023-07-30T07:39:32;3.78;;;2.50;;
23317;SDS011;11831;55.918;37.746;2023-07-30T07:41:59;2.78;;;2.00;;
23317;SDS011;11831;55.918;37.746;2023-07-30T07:44:25;3.53;;;2.50;;
23317;SDS011;11831;55.918;37.746;2023-07-30T07:46:52;3.67;;;2.17;;
23317;SDS011;11831;55.918;37.746;2023-07-30T07:49:18;4.53;;;3.97;;
23317;SDS011;11831;55.918;37.746;2023-07-30T07:51:45;3.28;;;2.30;;
23317;SDS011;11831;55.918;37.746;2023-07-30T07:54:11;4.20;;;2.30;;
23317;SDS011;11831;55.918;37.746;2023-07-30T07:56:37;4.65;;;2.35;;
23317;SDS011;11831;55.918;37.746;2023-07-30T07:59:04;3.28;;;2.03;;
23317;SDS011;11831;55.918;37.746;2023-07-30T08:01:30;3.78;;;2.35;;
23317;SDS011;11831;55.918;37.746;2023-07-30T08:03:56;3.70;;;2.25;;
23317;SDS011;11831;55.918;37.746;2023-07-30T08:06:23;2.00;;;1.90;;
23317;SDS011;11831;55.918;37.746;2023-07-30T08:08:50;2.92;;;2.20;;
23317;SDS011;11831;55.918;37.746;2023-07-30T08:11:16;3.45;;;2.12;;
23317;SDS011;11831;55.918;37.746;2023-07-30T08:13:42;3.17;;;2.30;;
23317;SDS011;11831;55.918;37.746;2023-07-30T08:16:09;3.53;;;2.17;;
23317;SDS011;11831;55.918;37.746;2023-07-30T08:18:35;5.15;;;2.28;;
23317;SDS011;11831;55.918;37.746;2023-07-30T08:21:02;2.87;;;2.00;;
23317;SDS011;11831;55.918;37.746;2023-07-30T08:23:29;9.05;;;2.55;;
23317;SDS011;11831;55.918;37.746;2023-07-30T08:25:56;3.53;;;2.15;;
23317;SDS011;11831;55.918;37.746;2023-07-30T08:28:22;4.50;;;2.10;;
23317;SDS011;11831;55.918;37.746;2023-07-30T08:30:48;4.60;;;2.40;;
23317;SDS011;11831;55.918;37.746;2023-07-30T08:33:15;7.03;;;2.40;;
23317;SDS011;11831;55.918;37.746;2023-07-30T08:35:41;4.80;;;2.35;;
23317;SDS011;11831;55.918;37.746;2023-07-30T08:38:07;3.53;;;2.30;;
23317;SDS011;11831;55.918;37.746;2023-07-30T08:40:34;2.40;;;1.90;;
23317;SDS011;11831;55.918;37.746;2023-07-30T08:43:01;3.25;;;2.30;;
23317;SDS011;11831;55.918;37.746;2023-07-30T08:45:29;2.80;;;1.98;;
23317;SDS011;11831;55.918;37.746;2023-07-30T08:47:56;4.05;;;2.12;;
23317;SDS011;11831;55.918;37.746;2023-07-30T08:50:22;5.75;;;2.08;;
23317;SDS011;11831;55.918;37.746;2023-07-30T08:52:49;4.62;;;2.00;;
23317;SDS011;11831;55.918;37.746;2023-07-30T08:55:16;4.45;;;2.00;;
23317;SDS011;11831;55.918;37.746;2023-07-30T08:57:44;2.50;;;2.00;;
23317;SDS011;11831;55.918;37.746;2023-07-30T09:00:11;3.22;;;2.20;;
23317;SDS011;11831;55.918;37.746;2023-07-30T09:05:22;3.85;;;2.30;;
23317;SDS011;11831;55.918;37.746;2023-07-30T09:07:49;5.05;;;2.12;;
23317;SDS011;11831;55.918;37.746;2023-07-30T09:10:15;3.15;;;2.12;;
23317;SDS011;11831;55.918;37.746;2023-07-30T09:12:42;6.97;;;4.50;;
23317;SDS011;11831;55.918;37.746;2023-07-30T09:15:08;2.53;;;2.30;;
23317;SDS011;11831;55.918;37.746;2023-07-30T09:17:35;4.50;;;2.08;;
23317;SDS011;11831;55.918;37.746;2023-07-30T09:20:02;2.70;;;2.20;;
23317;SDS011;11831;55.918;37.746;2023-07-30T09:22:31;2.70;;;1.87;;
23317;SDS011;11831;55.918;37.746;2023-07-30T09:25:07;3.92;;;1.95;;
23317;SDS011;11831;55.918;37.746;2023-07-30T09:27:34;2.47;;;2.03;;
23317;SDS011;11831;55.918;37.746;2023-07-30T09:30:02;3.75;;;2.17;;
23317;SDS011;11831;55.918;37.746;2023-07-30T09:32:32;3.35;;;2.20;;
23317;SDS011;11831;55.918;37.746;2023-07-30T09:35:06;4.20;;;2.12;;
23317;SDS011;11831;55.918;37.746;2023-07-30T09:37:38;5.37;;;3.15;;
23317;SDS011;11831;55.918;37.746;2023-07-30T09:40:07;2.37;;;1.75;;
23317;SDS011;11831;55.918;37.746;2023-07-30T09:42:35;3.45;;;2.05;;
23317;SDS011;11831;55.918;37.746;2023-07-30T09:45:08;2.15;;;1.90;;
23317;SDS011;11831;55.918;37.746;2023-07-30T09:47:47;2.45;;;1.92;;
23317;SDS011;11831;55.918;37.746;2023-07-30T09:50:14;2.87;;;2.00;;
23317;SDS011;11831;55.918;37.746;2023-07-30T09:52:41;4.20;;;1.95;;
23317;SDS011;11831;55.918;37.746;2023-07-30T09:55:09;4.25;;;2.00;;
23317;SDS011;11831;55.918;37.746;2023-07-30T09:57:37;2.00;;;1.83;;
23317;SDS011;11831;55.918;37.746;2023-07-30T10:00:04;3.28;;;2.00;;
23317;SDS011;11831;55.918;37.746;2023-07-30T10:02:37;4.37;;;2.10;;
23317;SDS011;11831;55.918;37.746;2023-07-30T10:05:10;2.85;;;1.80;;
23317;SDS011;11831;55.918;37.746;2023-07-30T10:07:40;3.80;;;1.80;;
23317;SDS011;11831;55.918;37.746;2023-07-30T10:10:13;2.33;;;1.70;;
23317;SDS011;11831;55.918;37.746;2023-07-30T10:12:39;3.83;;;1.80;;
23317;SDS011;11831;55.918;37.746;2023-07-30T10:15:09;2.10;;;1.90;;
23317;SDS011;11831;55.918;37.746;2023-07-30T10:17:36;2.30;;;1.85;;
23317;SDS011;11831;55.918;37.746;2023-07-30T10:20:22;2.17;;;1.58;;
23317;SDS011;11831;55.918;37.746;2023-07-30T10:22:53;2.70;;;1.70;;
23317;SDS011;11831;55.918;37.746;2023-07-30T10:25:30;2.08;;;1.90;;
23317;SDS011;11831;55.918;37.746;2023-07-30T10:28:26;2.95;;;1.70;;
23317;SDS011;11831;55.918;37.746;2023-07-30T10:30:57;2.35;;;1.67;;
23317;SDS011;11831;55.918;37.746;2023-07-30T10:36:31;2.03;;;1.65;;
23317;SDS011;11831;55.918;37.746;2023-07-30T10:42:01;4.68;;;3.80;;
23317;SDS011;11831;55.918;37.746;2023-07-30T10:44:28;2.72;;;1.48;;
23317;SDS011;11831;55.918;37.746;2023-07-30T10:46:59;3.60;;;1.70;;
23317;SDS011;11831;55.918;37.746;2023-07-30T10:49:26;2.20;;;1.73;;
23317;SDS011;11831;55.918;37.746;2023-07-30T10:51:54;3.05;;;1.62;;
23317;SDS011;11831;55.918;37.746;2023-07-30T10:54:23;4.22;;;1.90;;
23317;SDS011;11831;55.918;37.746;2023-07-30T10:56:49;3.10;;;1.40;;
23317;SDS011;11831;55.918;37.746;2023-07-30T10:59:17;2.65;;;1.60;;
23317;SDS011;11831;55.918;37.746;2023-07-30T11:01:45;3.75;;;1.77;;
23317;SDS011;11831;55.918;37.746;2023-07-30T11:04:14;5.22;;;1.70;;
23317;SDS011;11831;55.918;37.746;2023-07-30T11:06:48;2.77;;;1.90;;
23317;SDS011;11831;55.918;37.746;2023-07-30T11:09:20;2.03;;;1.83;;
23317;SDS011;11831;55.918;37.746;2023-07-30T11:14:14;2.65;;;1.85;;
23317;SDS011;11831;55.918;37.746;2023-07-30T11:16:52;2.28;;;1.50;;
23317;SDS011;11831;55.918;37.746;2023-07-30T11:19:20;2.60;;;1.60;;
23317;SDS011;11831;55.918;37.746;2023-07-30T11:21:47;3.05;;;1.58;;
23317;SDS011;11831;55.918;37.746;2023-07-30T11:24:14;3.37;;;2.03;;
23317;SDS011;11831;55.918;37.746;2023-07-30T11:26:41;4.82;;;1.73;;
23317;SDS011;11831;55.918;37.746;2023-07-30T11:29:18;2.03;;;1.80;;
23317;SDS011;11831;55.918;37.746;2023-07-30T11:31:46;1.92;;;1.62;;
23317;SDS011;11831;55.918;37.746;2023-07-30T11:34:13;7.32;;;5.45;;
23317;SDS011;11831;55.918;37.746;2023-07-30T11:36:41;3.60;;;1.67;;
23317;SDS011;11831;55.918;37.746;2023-07-30T11:39:08;2.65;;;1.90;;
23317;SDS011;11831;55.918;37.746;2023-07-30T11:41:36;2.60;;;1.92;;
23317;SDS011;11831;55.918;37.746;2023-07-30T11:44:03;2.45;;;1.50;;
23317;SDS011;11831;55.918;37.746;2023-07-30T11:46:30;5.15;;;1.80;;
23317;SDS011;11831;55.918;37.746;2023-07-30T11:49:14;2.35;;;1.95;;
23317;SDS011;11831;55.918;37.746;2023-07-30T11:51:47;2.15;;;1.75;;
23317;SDS011;11831;55.918;37.746;2023-07-30T11:54:21;3.05;;;1.98;;
23317;SDS011;11831;55.918;37.746;2023-07-30T11:56:56;8.75;;;2.30;;
23317;SDS011;11831;55.918;37.746;2023-07-30T11:59:23;2.83;;;1.92;;
23317;SDS011;11831;55.918;37.746;2023-07-30T12:01:49;1.80;;;1.70;;
23317;SDS011;11831;55.918;37.746;2023-07-30T12:04:18;2.40;;;1.73;;
23317;SDS011;11831;55.918;37.746;2023-07-30T12:06:48;2.20;;;2.00;;
23317;SDS011;11831;55.918;37.746;2023-07-30T12:09:18;2.22;;;1.83;;
23317;SDS011;11831;55.918;37.746;2023-07-30T12:11:55;2.22;;;2.00;;
23317;SDS011;11831;55.918;37.746;2023-07-30T12:14:22;3.30;;;1.95;;
23317;SDS011;11831;55.918;37.746;2023-07-30T12:16:58;2.47;;;1.70;;
23317;SDS011;11831;55.918;37.746;2023-07-30T12:19:24;4.28;;;2.30;;
23317;SDS011;11831;55.918;37.746;2023-07-30T12:21:51;3.30;;;3.00;;
23317;SDS011;11831;55.918;37.746;2023-07-30T12:24:17;7.40;;;6.72;;
23317;SDS011;11831;55.918;37.746;2023-07-30T12:26:44;3.08;;;2.10;;
23317;SDS011;11831;55.918;37.746;2023-07-30T12:29:11;3.30;;;2.65;;
23317;SDS011;11831;55.918;37.746;2023-07-30T12:31:37;3.00;;;2.70;;
23317;SDS011;11831;55.918;37.746;2023-07-30T12:34:03;2.22;;;2.00;;
23317;SDS011;11831;55.918;37.746;2023-07-30T12:36:30;4.57;;;1.90;;
23317;SDS011;11831;55.918;37.746;2023-07-30T12:38:56;1.87;;;1.62;;
23317;SDS011;11831;55.918;37.746;2023-07-30T12:41:22;3.35;;;2.17;;
23317;SDS011;11831;55.918;37.746;2023-07-30T12:43:52;3.60;;;2.12;;
23317;SDS011;11831;55.918;37.746;2023-07-30T12:46:19;2.20;;;2.00;;
23317;SDS011;11831;55.918;37.746;2023-07-30T12:48:46;2.47;;;2.12;;
23317;SDS011;11831;55.918;37.746;2023-07-30T12:51:12;2.72;;;2.10;;
23317;SDS011;11831;55.918;37.746;2023-07-30T12:53:39;2.40;;;2.20;;
23317;SDS011;11831;55.918;37.746;2023-07-30T12:56:05;2.20;;;2.00;;
23317;SDS011;11831;55.918;37.746;2023-07-30T12:58:32;2.92;;;2.20;;
23317;SDS011;11831;55.918;37.746;2023-07-30T13:00:58;2.25;;;2.12;;
23317;SDS011;11831;55.918;37.746;2023-07-30T13:03:24;3.55;;;2.28;;
23317;SDS011;11831;55.918;37.746;2023-07-30T13:05:51;2.72;;;2.00;;
23317;SDS011;11831;55.918;37.746;2023-07-30T13:08:17;2.17;;;1.98;;
23317;SDS011;11831;55.918;37.746;2023-07-30T13:10:45;6.22;;;4.65;;
23317;SDS011;11831;55.918;37.746;2023-07-30T13:13:11;4.10;;;2.62;;
23317;SDS011;11831;55.918;37.746;2023-07-30T13:15:38;6.12;;;4.35;;
23317;SDS011;11831;55.918;37.746;2023-07-30T13:18:04;2.67;;;2.47;;
23317;SDS011;11831;55.918;37.746;2023-07-30T13:20:30;3.92;;;2.15;;
23317;SDS011;11831;55.918;37.746;2023-07-30T13:22:58;2.15;;;1.92;;
23317;SDS011;11831;55.918;37.746;2023-07-30T13:25:24;2.40;;;2.20;;
23317;SDS011;11831;55.918;37.746;2023-07-30T13:27:51;1.80;;;1.70;;
23317;SDS011;11831;55.918;37.746;2023-07-30T13:30:17;3.45;;;1.80;;
23317;SDS011;11831;55.918;37.746;2023-07-30T13:32:44;1.77;;;1.67;;
23317;SDS011;11831;55.918;37.746;2023-07-30T13:35:10;1.80;;;1.70;;
23317;SDS011;11831;55.918;37.746;2023-07-30T13:37:37;2.20;;;2.00;;
23317;SDS011;11831;55.918;37.746;2023-07-30T13:40:03;2.83;;;1.90;;
23317;SDS011;11831;55.918;37.746;2023-07-30T13:42:30;6.50;;;6.00;;
23317;SDS011;11831;55.918;37.746;2023-07-30T13:44:57;2.70;;;2.50;;
23317;SDS011;11831;55.918;37.746;2023-07-30T13:47:24;2.37;;;2.17;;
23317;SDS011;11831;55.918;37.746;2023-07-30T13:49:50;2.20;;;2.10;;
23317;SDS011;11831;55.918;37.746;2023-07-30T13:52:17;2.40;;;2.20;;
23317;SDS011;11831;55.918;37.746;2023-07-30T13:54:43;3.67;;;2.22;;
23317;SDS011;11831;55.918;37.746;2023-07-30T13:57:11;4.55;;;2.30;;
23317;SDS011;11831;55.918;37.746;2023-07-30T13:59:38;3.12;;;1.75;;
23317;SDS011;11831;55.918;37.746;2023-07-30T14:02:05;2.37;;;2.00;;
23317;SDS011;11831;55.918;37.746;2023-07-30T14:04:32;2.65;;;2.30;;
23317;SDS011;11831;55.918;37.746;2023-07-30T14:06:58;3.20;;;2.28;;
23317;SDS011;11831;55.918;37.746;2023-07-30T14:09:24;3.05;;;2.45;;
23317;SDS011;11831;55.918;37.746;2023-07-30T14:11:53;3.97;;;2.10;;
23317;SDS011;11831;55.918;37.746;2023-07-30T14:14:19;3.00;;;1.85;;
23317;SDS011;11831;55.918;37.746;2023-07-30T14:16:48;2.00;;;1.90;;
23317;SDS011;11831;55.918;37.746;2023-07-30T14:19:14;2.33;;;2.12;;
23317;SDS011;11831;55.918;37.746;2023-07-30T14:21:41;2.12;;;1.98;;
23317;SDS011;11831;55.918;37.746;2023-07-30T14:24:08;2.33;;;1.95;;
23317;SDS011;11831;55.918;37.746;2023-07-30T14:26:35;2.62;;;2.33;;
23317;SDS011;11831;55.918;37.746;2023-07-30T14:29:01;2.25;;;2.05;;
23317;SDS011;11831;55.918;37.746;2023-07-30T14:31:27;3.75;;;1.92;;
23317;SDS011;11831;55.918;37.746;2023-07-30T14:33:54;3.30;;;2.28;;
23317;SDS011;11831;55.918;37.746;2023-07-30T14:36:20;5.03;;;2.28;;
23317;SDS011;11831;55.918;37.746;2023-07-30T14:38:46;2.33;;;1.92;;
23317;SDS011;11831;55.918;37.746;2023-07-30T14:41:12;3.05;;;2.50;;
23317;SDS011;11831;55.918;37.746;2023-07-30T14:43:39;2.83;;;1.87;;
23317;SDS011;11831;55.918;37.746;2023-07-30T14:46:05;3.22;;;2.90;;